VTSP/HKT METAR and TAF weather

Enter ICAO airport designator
Station Type Date Time Source
VTSP METAR 2020/12/05 06:00 UTC NOAA

VTSP 050600Z 08013KT 030V110 9999 FEW020 31/21 Q1009 NOSIG


Station Type Date Time Source
VTSP Decoded METAR 2020/12/05 06:00 UTC NOAA

Phuket Airport, Thailand (VTSP) 08-07N 098-19E 10M
Dec 05, 2020 - 01:00 AM EST / 2020.12.05 0600 UTC
Wind: from the E (080 degrees) at 15 MPH (13 KT) (direction variable):0
Visibility: greater than 7 mile(s):0
Sky conditions: mostly clear
Temperature: 87 F (31 C)
Dew Point: 69 F (21 C)
Relative Humidity: 55%
Pressure (altimeter): 29.80 in. Hg (1009 hPa)
ob: VTSP 050600Z 08013KT 030V110 9999 FEW020 31/21 Q1009 NOSIG
cycle: 6

Station Type Date Time Source
VTSP TAF 2020/12/05 06:36 UTC NOAA

TAF VTSP 050500Z 0506/0612 08010KT 9999 FEW020

Example: see airport list